Terminal Aerodrome Forecast
Issued by NWS Cleveland, OH

Home | Current Version | Previous Version | Graphics & Text | Print | Product List | Glossary On
Versions: 1 2 3 4 5 6 7 8 9 10 11 12 13 14 15 16 17 18 19
000
FTUS41 KCLE 080500
TAFERI
TAF
KERI 080529Z 0806/0906 21008KT P6SM SCT025 BKN150
      TEMPO 0809/0813 BKN025
     FM081400 21012G20KT P6SM BKN035
     FM081700 22014G22KT P6SM VCTS SCT025 OVC035CB
     FM082200 23015G25KT P6SM BKN035
     FM090200 25012KT P6SM VCTS SCT025 BKN035CB=

USA.gov is the U.S. government's official web portal to all federal, state and local government web resources and services.